sensor_id;sensor_type;location;lat;lon;timestamp;temperature;humidity
13251;DHT22;6692;50.710;7.180;2023-07-13T00:00:37;19.50;94.50
13251;DHT22;6692;50.710;7.180;2023-07-13T00:02:38;19.50;95.00
13251;DHT22;6692;50.710;7.180;2023-07-13T00:04:39;19.50;95.80
13251;DHT22;6692;50.710;7.180;2023-07-13T00:06:40;19.50;95.80
13251;DHT22;6692;50.710;7.180;2023-07-13T00:08:41;19.40;96.20
13251;DHT22;6692;50.710;7.180;2023-07-13T00:10:41;19.40;96.70
13251;DHT22;6692;50.710;7.180;2023-07-13T00:12:42;19.40;97.00
13251;DHT22;6692;50.710;7.180;2023-07-13T00:14:43;19.30;97.30
13251;DHT22;6692;50.710;7.180;2023-07-13T00:16:43;19.20;97.50
13251;DHT22;6692;50.710;7.180;2023-07-13T00:18:45;19.10;98.20
13251;DHT22;6692;50.710;7.180;2023-07-13T00:20:45;19.10;97.90
13251;DHT22;6692;50.710;7.180;2023-07-13T00:22:46;19.10;98.30
13251;DHT22;6692;50.710;7.180;2023-07-13T00:24:48;18.90;98.90
13251;DHT22;6692;50.710;7.180;2023-07-13T00:26:48;18.90;98.80
13251;DHT22;6692;50.710;7.180;2023-07-13T00:28:49;18.90;99.00
13251;DHT22;6692;50.710;7.180;2023-07-13T00:30:50;18.80;99.30
13251;DHT22;6692;50.710;7.180;2023-07-13T00:32:50;18.80;99.50
13251;DHT22;6692;50.710;7.180;2023-07-13T00:34:51;18.70;99.70
13251;DHT22;6692;50.710;7.180;2023-07-13T00:36:52;18.70;99.90
13251;DHT22;6692;50.710;7.180;2023-07-13T00:38:52;18.70;99.90
13251;DHT22;6692;50.710;7.180;2023-07-13T00:40:54;18.60;99.90
13251;DHT22;6692;50.710;7.180;2023-07-13T00:42:56;18.50;99.90
13251;DHT22;6692;50.710;7.180;2023-07-13T00:45:03;18.60;99.90
13251;DHT22;6692;50.710;7.180;2023-07-13T00:47:03;18.50;99.90
13251;DHT22;6692;50.710;7.180;2023-07-13T00:49:04;18.50;99.90
13251;DHT22;6692;50.710;7.180;2023-07-13T00:51:05;18.50;99.90
13251;DHT22;6692;50.710;7.180;2023-07-13T00:53:05;18.40;99.90
13251;DHT22;6692;50.710;7.180;2023-07-13T00:55:07;18.40;99.90
13251;DHT22;6692;50.710;7.180;2023-07-13T00:57:08;18.40;99.90
13251;DHT22;6692;50.710;7.180;2023-07-13T00:59:08;18.40;99.90
13251;DHT22;6692;50.710;7.180;2023-07-13T01:01:09;18.30;99.90
13251;DHT22;6692;50.710;7.180;2023-07-13T01:03:10;18.20;99.90
13251;DHT22;6692;50.710;7.180;2023-07-13T01:05:12;18.20;99.90
13251;DHT22;6692;50.710;7.180;2023-07-13T01:07:12;18.20;99.90
13251;DHT22;6692;50.710;7.180;2023-07-13T01:09:13;18.20;99.90
13251;DHT22;6692;50.710;7.180;2023-07-13T01:11:17;18.20;99.90
13251;DHT22;6692;50.710;7.180;2023-07-13T01:13:14;18.10;99.90
13251;DHT22;6692;50.710;7.180;2023-07-13T01:17:29;18.10;99.90
13251;DHT22;6692;50.710;7.180;2023-07-13T01:19:35;18.00;99.90
13251;DHT22;6692;50.710;7.180;2023-07-13T01:21:35;18.00;99.90
13251;DHT22;6692;50.710;7.180;2023-07-13T01:23:35;18.00;99.90
13251;DHT22;6692;50.710;7.180;2023-07-13T01:25:37;18.00;99.90
13251;DHT22;6692;50.710;7.180;2023-07-13T01:27:37;18.00;99.90
13251;DHT22;6692;50.710;7.180;2023-07-13T01:29:39;17.90;99.90
13251;DHT22;6692;50.710;7.180;2023-07-13T01:31:40;17.90;99.90
13251;DHT22;6692;50.710;7.180;2023-07-13T01:33:40;17.90;99.90
13251;DHT22;6692;50.710;7.180;2023-07-13T01:35:41;17.80;99.90
13251;DHT22;6692;50.710;7.180;2023-07-13T01:37:42;17.80;99.90
13251;DHT22;6692;50.710;7.180;2023-07-13T01:39:42;17.70;99.90
13251;DHT22;6692;50.710;7.180;2023-07-13T01:41:43;17.70;99.90
13251;DHT22;6692;50.710;7.180;2023-07-13T01:43:44;17.70;99.90
13251;DHT22;6692;50.710;7.180;2023-07-13T01:45:45;17.60;99.90
13251;DHT22;6692;50.710;7.180;2023-07-13T01:47:46;17.60;99.90
13251;DHT22;6692;50.710;7.180;2023-07-13T01:49:46;17.60;99.90
13251;DHT22;6692;50.710;7.180;2023-07-13T01:51:47;17.60;99.90
13251;DHT22;6692;50.710;7.180;2023-07-13T01:53:49;17.50;99.90
13251;DHT22;6692;50.710;7.180;2023-07-13T01:55:49;17.50;99.90
13251;DHT22;6692;50.710;7.180;2023-07-13T01:57:50;17.50;99.90
13251;DHT22;6692;50.710;7.180;2023-07-13T01:59:51;17.40;99.90
13251;DHT22;6692;50.710;7.180;2023-07-13T02:01:52;17.40;99.90
13251;DHT22;6692;50.710;7.180;2023-07-13T02:03:53;17.40;99.90
13251;DHT22;6692;50.710;7.180;2023-07-13T02:05:54;17.40;99.90
13251;DHT22;6692;50.710;7.180;2023-07-13T02:07:55;17.40;99.90
13251;DHT22;6692;50.710;7.180;2023-07-13T02:09:55;17.40;99.90
13251;DHT22;6692;50.710;7.180;2023-07-13T02:11:56;17.40;99.90
13251;DHT22;6692;50.710;7.180;2023-07-13T02:13:57;17.40;99.90
13251;DHT22;6692;50.710;7.180;2023-07-13T02:15:57;17.40;99.90
13251;DHT22;6692;50.710;7.180;2023-07-13T02:17:58;17.40;99.90
13251;DHT22;6692;50.710;7.180;2023-07-13T02:19:59;17.40;99.90
13251;DHT22;6692;50.710;7.180;2023-07-13T02:22:00;17.40;99.90
13251;DHT22;6692;50.710;7.180;2023-07-13T02:24:01;17.30;99.90
13251;DHT22;6692;50.710;7.180;2023-07-13T02:26:03;17.30;99.90
13251;DHT22;6692;50.710;7.180;2023-07-13T02:28:03;17.30;99.90
13251;DHT22;6692;50.710;7.180;2023-07-13T02:30:05;17.30;99.90
13251;DHT22;6692;50.710;7.180;2023-07-13T02:32:07;17.30;99.90
13251;DHT22;6692;50.710;7.180;2023-07-13T02:34:07;17.30;99.90
13251;DHT22;6692;50.710;7.180;2023-07-13T02:36:08;17.30;99.90
13251;DHT22;6692;50.710;7.180;2023-07-13T02:38:09;17.30;99.90
13251;DHT22;6692;50.710;7.180;2023-07-13T02:40:10;17.30;99.90
13251;DHT22;6692;50.710;7.180;2023-07-13T02:42:10;17.30;99.90
13251;DHT22;6692;50.710;7.180;2023-07-13T02:44:12;17.30;99.90
13251;DHT22;6692;50.710;7.180;2023-07-13T02:46:13;17.30;99.90
13251;DHT22;6692;50.710;7.180;2023-07-13T02:48:13;17.30;99.90
13251;DHT22;6692;50.710;7.180;2023-07-13T02:50:14;17.30;99.90
13251;DHT22;6692;50.710;7.180;2023-07-13T02:52:15;17.30;99.90
13251;DHT22;6692;50.710;7.180;2023-07-13T02:54:15;17.30;99.90
13251;DHT22;6692;50.710;7.180;2023-07-13T02:56:16;17.40;99.90
13251;DHT22;6692;50.710;7.180;2023-07-13T02:58:17;17.30;99.90
13251;DHT22;6692;50.710;7.180;2023-07-13T03:00:18;17.40;99.90
13251;DHT22;6692;50.710;7.180;2023-07-13T03:02:18;17.40;99.90
13251;DHT22;6692;50.710;7.180;2023-07-13T03:04:20;17.30;99.90
13251;DHT22;6692;50.710;7.180;2023-07-13T03:06:21;17.30;99.90
13251;DHT22;6692;50.710;7.180;2023-07-13T03:08:22;17.30;99.90
13251;DHT22;6692;50.710;7.180;2023-07-13T03:10:23;17.20;99.90
13251;DHT22;6692;50.710;7.180;2023-07-13T03:12:24;17.20;99.90
13251;DHT22;6692;50.710;7.180;2023-07-13T03:14:24;17.20;99.90
13251;DHT22;6692;50.710;7.180;2023-07-13T03:16:25;17.20;99.90
13251;DHT22;6692;50.710;7.180;2023-07-13T03:18:26;17.20;99.90
13251;DHT22;6692;50.710;7.180;2023-07-13T03:20:27;17.20;99.90
13251;DHT22;6692;50.710;7.180;2023-07-13T03:22:27;17.30;99.90
13251;DHT22;6692;50.710;7.180;2023-07-13T03:24:28;17.30;99.90
13251;DHT22;6692;50.710;7.180;2023-07-13T03:26:29;17.30;99.90
13251;DHT22;6692;50.710;7.180;2023-07-13T03:28:30;17.40;99.90
13251;DHT22;6692;50.710;7.180;2023-07-13T03:30:30;17.40;99.90
13251;DHT22;6692;50.710;7.180;2023-07-13T03:32:32;17.50;99.90
13251;DHT22;6692;50.710;7.180;2023-07-13T03:34:32;17.50;99.90
13251;DHT22;6692;50.710;7.180;2023-07-13T03:36:33;17.50;99.90
13251;DHT22;6692;50.710;7.180;2023-07-13T03:38:34;17.60;99.90
13251;DHT22;6692;50.710;7.180;2023-07-13T03:40:35;17.60;99.90
13251;DHT22;6692;50.710;7.180;2023-07-13T03:42:36;17.60;99.90
13251;DHT22;6692;50.710;7.180;2023-07-13T03:44:37;17.70;99.90
13251;DHT22;6692;50.710;7.180;2023-07-13T03:46:38;17.80;99.90
13251;DHT22;6692;50.710;7.180;2023-07-13T03:48:40;17.80;99.90
13251;DHT22;6692;50.710;7.180;2023-07-13T03:50:40;17.90;99.90
13251;DHT22;6692;50.710;7.180;2023-07-13T03:52:41;18.00;99.90
13251;DHT22;6692;50.710;7.180;2023-07-13T03:54:42;18.00;99.90
13251;DHT22;6692;50.710;7.180;2023-07-13T03:56:43;18.10;99.90
13251;DHT22;6692;50.710;7.180;2023-07-13T03:58:44;18.10;99.90
13251;DHT22;6692;50.710;7.180;2023-07-13T04:00:44;18.20;99.90
13251;DHT22;6692;50.710;7.180;2023-07-13T04:02:46;18.30;99.90
13251;DHT22;6692;50.710;7.180;2023-07-13T04:04:46;18.30;99.90
13251;DHT22;6692;50.710;7.180;2023-07-13T04:06:48;18.40;99.90
13251;DHT22;6692;50.710;7.180;2023-07-13T04:08:49;18.40;99.90
13251;DHT22;6692;50.710;7.180;2023-07-13T04:10:49;18.40;99.90
13251;DHT22;6692;50.710;7.180;2023-07-13T04:12:50;18.40;99.90
13251;DHT22;6692;50.710;7.180;2023-07-13T04:14:51;18.40;99.90
13251;DHT22;6692;50.710;7.180;2023-07-13T04:16:53;18.40;99.90
13251;DHT22;6692;50.710;7.180;2023-07-13T04:18:53;18.40;99.90
13251;DHT22;6692;50.710;7.180;2023-07-13T04:20:54;18.40;99.90
13251;DHT22;6692;50.710;7.180;2023-07-13T04:22:55;18.30;99.90
13251;DHT22;6692;50.710;7.180;2023-07-13T04:24:55;18.30;99.90
13251;DHT22;6692;50.710;7.180;2023-07-13T04:26:57;18.20;99.90
13251;DHT22;6692;50.710;7.180;2023-07-13T04:28:59;18.20;99.90
13251;DHT22;6692;50.710;7.180;2023-07-13T04:31:00;18.20;99.90
13251;DHT22;6692;50.710;7.180;2023-07-13T04:33:01;18.20;99.90
13251;DHT22;6692;50.710;7.180;2023-07-13T04:35:02;18.20;99.90
13251;DHT22;6692;50.710;7.180;2023-07-13T04:37:03;18.20;99.90
13251;DHT22;6692;50.710;7.180;2023-07-13T04:39:05;18.20;99.90
13251;DHT22;6692;50.710;7.180;2023-07-13T04:41:06;18.20;99.90
13251;DHT22;6692;50.710;7.180;2023-07-13T04:43:06;18.20;99.90
13251;DHT22;6692;50.710;7.180;2023-07-13T04:45:07;18.20;99.90
13251;DHT22;6692;50.710;7.180;2023-07-13T04:47:08;18.10;99.90
13251;DHT22;6692;50.710;7.180;2023-07-13T04:49:09;18.20;99.90
13251;DHT22;6692;50.710;7.180;2023-07-13T04:51:10;18.20;99.90
13251;DHT22;6692;50.710;7.180;2023-07-13T04:53:11;18.20;99.90
13251;DHT22;6692;50.710;7.180;2023-07-13T04:55:11;18.10;99.90
13251;DHT22;6692;50.710;7.180;2023-07-13T04:57:13;18.10;99.90
13251;DHT22;6692;50.710;7.180;2023-07-13T04:59:13;18.10;99.90
13251;DHT22;6692;50.710;7.180;2023-07-13T05:01:14;18.20;99.90
13251;DHT22;6692;50.710;7.180;2023-07-13T05:03:15;18.20;99.90
13251;DHT22;6692;50.710;7.180;2023-07-13T05:05:15;18.10;99.90
13251;DHT22;6692;50.710;7.180;2023-07-13T05:07:16;18.10;99.90
13251;DHT22;6692;50.710;7.180;2023-07-13T05:09:17;18.20;99.90
13251;DHT22;6692;50.710;7.180;2023-07-13T05:11:18;18.20;99.90
13251;DHT22;6692;50.710;7.180;2023-07-13T05:13:18;18.20;99.90
13251;DHT22;6692;50.710;7.180;2023-07-13T05:15:20;18.20;99.90
13251;DHT22;6692;50.710;7.180;2023-07-13T05:17:19;18.30;99.90
13251;DHT22;6692;50.710;7.180;2023-07-13T05:19:20;18.30;99.90
13251;DHT22;6692;50.710;7.180;2023-07-13T05:21:21;18.30;99.90
13251;DHT22;6692;50.710;7.180;2023-07-13T05:23:21;18.30;99.90
13251;DHT22;6692;50.710;7.180;2023-07-13T05:25:23;18.40;99.90
13251;DHT22;6692;50.710;7.180;2023-07-13T05:27:24;18.40;99.90
13251;DHT22;6692;50.710;7.180;2023-07-13T05:29:24;18.50;99.90
13251;DHT22;6692;50.710;7.180;2023-07-13T05:31:25;18.60;99.90
13251;DHT22;6692;50.710;7.180;2023-07-13T05:33:26;18.60;99.90
13251;DHT22;6692;50.710;7.180;2023-07-13T05:35:27;18.60;99.90
13251;DHT22;6692;50.710;7.180;2023-07-13T05:37:28;18.70;99.90
13251;DHT22;6692;50.710;7.180;2023-07-13T05:39:28;18.80;99.90
13251;DHT22;6692;50.710;7.180;2023-07-13T05:41:30;18.80;99.90
13251;DHT22;6692;50.710;7.180;2023-07-13T05:43:31;18.80;99.90
13251;DHT22;6692;50.710;7.180;2023-07-13T05:45:31;18.90;99.90
13251;DHT22;6692;50.710;7.180;2023-07-13T05:47:32;18.90;99.90
13251;DHT22;6692;50.710;7.180;2023-07-13T05:49:33;19.00;99.90
13251;DHT22;6692;50.710;7.180;2023-07-13T05:51:34;19.00;99.90
13251;DHT22;6692;50.710;7.180;2023-07-13T05:53:35;19.00;99.90
13251;DHT22;6692;50.710;7.180;2023-07-13T05:55:35;19.00;99.90
13251;DHT22;6692;50.710;7.180;2023-07-13T05:57:36;19.00;99.90
13251;DHT22;6692;50.710;7.180;2023-07-13T05:59:37;19.10;99.90
13251;DHT22;6692;50.710;7.180;2023-07-13T06:01:37;19.10;99.90
13251;DHT22;6692;50.710;7.180;2023-07-13T06:03:38;19.00;99.90
13251;DHT22;6692;50.710;7.180;2023-07-13T06:05:39;19.10;99.90
13251;DHT22;6692;50.710;7.180;2023-07-13T06:07:40;19.10;99.90
13251;DHT22;6692;50.710;7.180;2023-07-13T06:09:40;19.10;99.90
13251;DHT22;6692;50.710;7.180;2023-07-13T06:11:41;19.20;99.90
13251;DHT22;6692;50.710;7.180;2023-07-13T06:13:42;19.30;99.90
13251;DHT22;6692;50.710;7.180;2023-07-13T06:15:42;19.30;99.90
13251;DHT22;6692;50.710;7.180;2023-07-13T06:17:44;19.50;99.90
13251;DHT22;6692;50.710;7.180;2023-07-13T06:19:44;19.50;99.90
13251;DHT22;6692;50.710;7.180;2023-07-13T06:21:46;19.60;99.90
13251;DHT22;6692;50.710;7.180;2023-07-13T06:23:47;19.60;99.90
13251;DHT22;6692;50.710;7.180;2023-07-13T06:25:48;19.60;99.90
13251;DHT22;6692;50.710;7.180;2023-07-13T06:27:49;19.70;99.90
13251;DHT22;6692;50.710;7.180;2023-07-13T06:29:49;19.70;99.90
13251;DHT22;6692;50.710;7.180;2023-07-13T06:31:51;19.90;99.90
13251;DHT22;6692;50.710;7.180;2023-07-13T06:33:51;19.90;99.90
13251;DHT22;6692;50.710;7.180;2023-07-13T06:35:53;20.10;99.90
13251;DHT22;6692;50.710;7.180;2023-07-13T06:37:54;20.10;99.90
13251;DHT22;6692;50.710;7.180;2023-07-13T06:39:55;20.30;99.90
13251;DHT22;6692;50.710;7.180;2023-07-13T06:41:56;20.30;99.90
13251;DHT22;6692;50.710;7.180;2023-07-13T06:43:56;20.30;99.90
13251;DHT22;6692;50.710;7.180;2023-07-13T06:45:58;20.30;99.90
13251;DHT22;6692;50.710;7.180;2023-07-13T06:47:58;20.30;99.90
13251;DHT22;6692;50.710;7.180;2023-07-13T06:50:00;20.20;98.90
13251;DHT22;6692;50.710;7.180;2023-07-13T06:52:01;20.20;98.90
13251;DHT22;6692;50.710;7.180;2023-07-13T06:54:01;20.20;98.70
13251;DHT22;6692;50.710;7.180;2023-07-13T06:56:03;20.20;98.50
13251;DHT22;6692;50.710;7.180;2023-07-13T06:58:04;20.20;98.50
13251;DHT22;6692;50.710;7.180;2023-07-13T07:00:05;20.10;98.60
13251;DHT22;6692;50.710;7.180;2023-07-13T07:02:08;20.10;98.70
13251;DHT22;6692;50.710;7.180;2023-07-13T07:04:07;20.10;98.90
13251;DHT22;6692;50.710;7.180;2023-07-13T07:06:23;20.10;98.70
13251;DHT22;6692;50.710;7.180;2023-07-13T07:08:24;20.10;99.30
13251;DHT22;6692;50.710;7.180;2023-07-13T07:10:25;20.00;99.20
13251;DHT22;6692;50.710;7.180;2023-07-13T07:12:26;20.10;98.80
13251;DHT22;6692;50.710;7.180;2023-07-13T07:14:26;20.10;99.00
13251;DHT22;6692;50.710;7.180;2023-07-13T07:16:28;20.10;98.00
13251;DHT22;6692;50.710;7.180;2023-07-13T07:18:28;20.10;98.00
13251;DHT22;6692;50.710;7.180;2023-07-13T07:20:29;20.10;97.90
13251;DHT22;6692;50.710;7.180;2023-07-13T07:22:30;20.30;97.80
13251;DHT22;6692;50.710;7.180;2023-07-13T07:24:31;20.30;97.40
13251;DHT22;6692;50.710;7.180;2023-07-13T07:26:32;20.30;96.60
13251;DHT22;6692;50.710;7.180;2023-07-13T07:28:32;20.40;96.40
13251;DHT22;6692;50.710;7.180;2023-07-13T07:30:34;20.50;96.70
13251;DHT22;6692;50.710;7.180;2023-07-13T07:32:35;20.50;96.70
13251;DHT22;6692;50.710;7.180;2023-07-13T07:34:35;20.60;96.10
13251;DHT22;6692;50.710;7.180;2023-07-13T07:36:36;20.50;96.00
13251;DHT22;6692;50.710;7.180;2023-07-13T07:38:37;20.70;95.60
13251;DHT22;6692;50.710;7.180;2023-07-13T07:40:39;20.70;95.50
13251;DHT22;6692;50.710;7.180;2023-07-13T07:42:39;20.70;94.70
13251;DHT22;6692;50.710;7.180;2023-07-13T07:44:40;20.70;94.10
13251;DHT22;6692;50.710;7.180;2023-07-13T07:46:40;20.70;93.40
13251;DHT22;6692;50.710;7.180;2023-07-13T07:48:41;20.80;93.50
13251;DHT22;6692;50.710;7.180;2023-07-13T07:50:41;20.80;93.90
13251;DHT22;6692;50.710;7.180;2023-07-13T07:52:42;20.80;94.10
13251;DHT22;6692;50.710;7.180;2023-07-13T07:54:43;20.90;93.70
13251;DHT22;6692;50.710;7.180;2023-07-13T07:56:44;20.90;92.60
13251;DHT22;6692;50.710;7.180;2023-07-13T07:58:45;20.90;92.60
13251;DHT22;6692;50.710;7.180;2023-07-13T08:00:46;20.90;91.90
13251;DHT22;6692;50.710;7.180;2023-07-13T08:02:47;21.00;92.20
13251;DHT22;6692;50.710;7.180;2023-07-13T08:04:48;21.00;92.20
13251;DHT22;6692;50.710;7.180;2023-07-13T08:06:48;21.00;91.40
13251;DHT22;6692;50.710;7.180;2023-07-13T08:08:49;21.10;91.80
13251;DHT22;6692;50.710;7.180;2023-07-13T08:10:50;21.20;92.10
13251;DHT22;6692;50.710;7.180;2023-07-13T08:12:50;21.20;92.30
13251;DHT22;6692;50.710;7.180;2023-07-13T08:14:51;21.20;92.30
13251;DHT22;6692;50.710;7.180;2023-07-13T08:16:53;21.20;92.00
13251;DHT22;6692;50.710;7.180;2023-07-13T08:18:53;21.20;92.00
13251;DHT22;6692;50.710;7.180;2023-07-13T08:20:54;21.20;92.00
13251;DHT22;6692;50.710;7.180;2023-07-13T08:22:57;21.20;91.70
13251;DHT22;6692;50.710;7.180;2023-07-13T08:24:58;21.20;91.50
13251;DHT22;6692;50.710;7.180;2023-07-13T08:26:58;21.20;91.30
13251;DHT22;6692;50.710;7.180;2023-07-13T08:28:59;21.10;91.80
13251;DHT22;6692;50.710;7.180;2023-07-13T08:31:01;21.10;91.30
13251;DHT22;6692;50.710;7.180;2023-07-13T08:33:01;21.10;91.30
13251;DHT22;6692;50.710;7.180;2023-07-13T08:35:03;21.30;91.70
13251;DHT22;6692;50.710;7.180;2023-07-13T08:37:04;21.20;91.60
13251;DHT22;6692;50.710;7.180;2023-07-13T08:39:05;21.40;91.70
13251;DHT22;6692;50.710;7.180;2023-07-13T08:41:14;21.60;91.70
13251;DHT22;6692;50.710;7.180;2023-07-13T08:43:15;21.60;91.60
13251;DHT22;6692;50.710;7.180;2023-07-13T08:45:20;21.60;91.60
13251;DHT22;6692;50.710;7.180;2023-07-13T08:47:19;21.60;91.00
13251;DHT22;6692;50.710;7.180;2023-07-13T08:49:21;21.60;90.30
13251;DHT22;6692;50.710;7.180;2023-07-13T08:51:24;21.60;90.30
13251;DHT22;6692;50.710;7.180;2023-07-13T08:53:22;21.70;90.30
13251;DHT22;6692;50.710;7.180;2023-07-13T08:55:25;21.80;88.90
13251;DHT22;6692;50.710;7.180;2023-07-13T08:57:27;21.90;89.10
13251;DHT22;6692;50.710;7.180;2023-07-13T08:59:27;21.90;89.10
13251;DHT22;6692;50.710;7.180;2023-07-13T09:01:54;22.00;87.70
13251;DHT22;6692;50.710;7.180;2023-07-13T09:03:54;22.00;86.80
13251;DHT22;6692;50.710;7.180;2023-07-13T09:05:54;22.00;87.20
13251;DHT22;6692;50.710;7.180;2023-07-13T09:10:19;22.20;84.20
13251;DHT22;6692;50.710;7.180;2023-07-13T09:14:42;22.30;84.20
13251;DHT22;6692;50.710;7.180;2023-07-13T09:16:42;22.50;83.60
13251;DHT22;6692;50.710;7.180;2023-07-13T09:18:45;22.60;83.10
13251;DHT22;6692;50.710;7.180;2023-07-13T09:20:46;22.60;81.50
13251;DHT22;6692;50.710;7.180;2023-07-13T09:22:46;22.80;80.50
13251;DHT22;6692;50.710;7.180;2023-07-13T09:24:52;22.80;80.40
13251;DHT22;6692;50.710;7.180;2023-07-13T09:26:51;22.90;79.20
13251;DHT22;6692;50.710;7.180;2023-07-13T09:28:58;23.00;78.20
13251;DHT22;6692;50.710;7.180;2023-07-13T09:31:24;23.10;78.20
13251;DHT22;6692;50.710;7.180;2023-07-13T09:33:26;23.30;77.90
13251;DHT22;6692;50.710;7.180;2023-07-13T09:35:28;23.60;77.50
13251;DHT22;6692;50.710;7.180;2023-07-13T09:37:30;24.10;76.90
13251;DHT22;6692;50.710;7.180;2023-07-13T09:39:30;24.10;76.80
13251;DHT22;6692;50.710;7.180;2023-07-13T09:41:48;24.40;76.60
13251;DHT22;6692;50.710;7.180;2023-07-13T09:44:08;24.60;74.50
13251;DHT22;6692;50.710;7.180;2023-07-13T09:46:21;24.60;74.00
13251;DHT22;6692;50.710;7.180;2023-07-13T09:48:22;24.10;73.40
13251;DHT22;6692;50.710;7.180;2023-07-13T09:50:23;24.10;73.40
13251;DHT22;6692;50.710;7.180;2023-07-13T09:52:25;23.90;75.00
13251;DHT22;6692;50.710;7.180;2023-07-13T09:54:25;23.90;74.90
13251;DHT22;6692;50.710;7.180;2023-07-13T09:56:27;23.80;75.00
13251;DHT22;6692;50.710;7.180;2023-07-13T09:58:30;23.60;73.90
13251;DHT22;6692;50.710;7.180;2023-07-13T10:00:28;23.60;75.20
13251;DHT22;6692;50.710;7.180;2023-07-13T10:02:30;23.70;76.40
13251;DHT22;6692;50.710;7.180;2023-07-13T10:04:31;23.70;76.40
13251;DHT22;6692;50.710;7.180;2023-07-13T10:06:31;23.80;76.50
13251;DHT22;6692;50.710;7.180;2023-07-13T10:08:32;23.80;74.30
13251;DHT22;6692;50.710;7.180;2023-07-13T10:10:33;23.70;74.20
13251;DHT22;6692;50.710;7.180;2023-07-13T10:12:35;23.70;72.60
13251;DHT22;6692;50.710;7.180;2023-07-13T10:14:34;23.70;73.20
13251;DHT22;6692;50.710;7.180;2023-07-13T10:16:35;23.70;72.90
13251;DHT22;6692;50.710;7.180;2023-07-13T10:18:53;23.80;72.20
13251;DHT22;6692;50.710;7.180;2023-07-13T10:20:54;23.90;72.60
13251;DHT22;6692;50.710;7.180;2023-07-13T10:22:58;23.80;72.50
13251;DHT22;6692;50.710;7.180;2023-07-13T10:24:55;23.90;71.80
13251;DHT22;6692;50.710;7.180;2023-07-13T10:29:09;24.00;71.90
13251;DHT22;6692;50.710;7.180;2023-07-13T10:31:10;24.20;70.60
13251;DHT22;6692;50.710;7.180;2023-07-13T10:33:10;24.20;70.50
13251;DHT22;6692;50.710;7.180;2023-07-13T10:35:11;24.60;69.80
13251;DHT22;6692;50.710;7.180;2023-07-13T10:37:18;24.50;69.70
13251;DHT22;6692;50.710;7.180;2023-07-13T10:39:18;24.70;68.00
13251;DHT22;6692;50.710;7.180;2023-07-13T10:41:18;24.60;66.50
13251;DHT22;6692;50.710;7.180;2023-07-13T10:43:22;24.70;66.50
13251;DHT22;6692;50.710;7.180;2023-07-13T10:45:21;24.60;66.40
13251;DHT22;6692;50.710;7.180;2023-07-13T10:47:22;24.90;71.40
13251;DHT22;6692;50.710;7.180;2023-07-13T10:49:23;24.90;71.30
13251;DHT22;6692;50.710;7.180;2023-07-13T10:51:25;25.10;72.70
13251;DHT22;6692;50.710;7.180;2023-07-13T10:53:28;25.10;72.70
13251;DHT22;6692;50.710;7.180;2023-07-13T10:55:31;25.10;70.90
13251;DHT22;6692;50.710;7.180;2023-07-13T10:57:31;25.10;70.20
13251;DHT22;6692;50.710;7.180;2023-07-13T10:59:32;25.10;70.70
13251;DHT22;6692;50.710;7.180;2023-07-13T11:01:39;25.00;70.10
13251;DHT22;6692;50.710;7.180;2023-07-13T11:03:50;24.90;69.10
13251;DHT22;6692;50.710;7.180;2023-07-13T11:05:50;24.90;69.00
13251;DHT22;6692;50.710;7.180;2023-07-13T11:07:52;24.90;66.00
13251;DHT22;6692;50.710;7.180;2023-07-13T11:09:52;24.90;66.30
13251;DHT22;6692;50.710;7.180;2023-07-13T11:11:52;24.90;65.90
13251;DHT22;6692;50.710;7.180;2023-07-13T11:13:58;25.00;64.50
13251;DHT22;6692;50.710;7.180;2023-07-13T11:15:58;25.00;64.10
13251;DHT22;6692;50.710;7.180;2023-07-13T11:18:02;25.00;64.10
13251;DHT22;6692;50.710;7.180;2023-07-13T11:20:20;25.10;65.00
13251;DHT22;6692;50.710;7.180;2023-07-13T11:22:23;25.00;62.30
13251;DHT22;6692;50.710;7.180;2023-07-13T11:24:28;24.80;61.30
13251;DHT22;6692;50.710;7.180;2023-07-13T11:28:38;24.50;61.60
13251;DHT22;6692;50.710;7.180;2023-07-13T11:31:01;24.50;61.50
13251;DHT22;6692;50.710;7.180;2023-07-13T11:33:18;24.50;62.10
13251;DHT22;6692;50.710;7.180;2023-07-13T11:35:21;24.50;63.00
13251;DHT22;6692;50.710;7.180;2023-07-13T11:37:20;24.70;63.90
13251;DHT22;6692;50.710;7.180;2023-07-13T11:39:25;25.00;64.50
13251;DHT22;6692;50.710;7.180;2023-07-13T11:41:29;25.00;65.00
13251;DHT22;6692;50.710;7.180;2023-07-13T11:43:28;25.20;64.30
13251;DHT22;6692;50.710;7.180;2023-07-13T11:45:30;25.50;63.10
13251;DHT22;6692;50.710;7.180;2023-07-13T11:47:30;25.50;63.00
13251;DHT22;6692;50.710;7.180;2023-07-13T11:49:31;25.60;63.80
13251;DHT22;6692;50.710;7.180;2023-07-13T11:51:33;25.50;62.50
13251;DHT22;6692;50.710;7.180;2023-07-13T11:53:38;25.60;62.60
13251;DHT22;6692;50.710;7.180;2023-07-13T11:55:35;25.40;61.50
13251;DHT22;6692;50.710;7.180;2023-07-13T11:57:37;25.30;61.70
13251;DHT22;6692;50.710;7.180;2023-07-13T11:59:38;25.20;61.70
13251;DHT22;6692;50.710;7.180;2023-07-13T12:01:42;24.80;61.20
13251;DHT22;6692;50.710;7.180;2023-07-13T12:03:39;24.80;61.20
13251;DHT22;6692;50.710;7.180;2023-07-13T12:05:54;24.70;61.00
13251;DHT22;6692;50.710;7.180;2023-07-13T12:07:40;24.70;61.90
13251;DHT22;6692;50.710;7.180;2023-07-13T12:09:41;24.70;62.10
13251;DHT22;6692;50.710;7.180;2023-07-13T12:11:42;24.80;63.00
13251;DHT22;6692;50.710;7.180;2023-07-13T12:13:43;24.90;63.90
13251;DHT22;6692;50.710;7.180;2023-07-13T12:15:43;24.80;62.40
13251;DHT22;6692;50.710;7.180;2023-07-13T12:17:45;24.60;62.10
13251;DHT22;6692;50.710;7.180;2023-07-13T12:19:45;24.50;62.00
13251;DHT22;6692;50.710;7.180;2023-07-13T12:21:46;24.60;61.90
13251;DHT22;6692;50.710;7.180;2023-07-13T12:23:47;24.40;62.30
13251;DHT22;6692;50.710;7.180;2023-07-13T12:25:48;24.60;63.50
13251;DHT22;6692;50.710;7.180;2023-07-13T12:27:49;24.60;63.50
13251;DHT22;6692;50.710;7.180;2023-07-13T12:29:52;24.70;63.70
13251;DHT22;6692;50.710;7.180;2023-07-13T12:31:52;24.90;62.70
13251;DHT22;6692;50.710;7.180;2023-07-13T12:33:58;25.10;62.30
13251;DHT22;6692;50.710;7.180;2023-07-13T12:35:57;25.20;60.60
13251;DHT22;6692;50.710;7.180;2023-07-13T12:37:58;25.20;60.00
13251;DHT22;6692;50.710;7.180;2023-07-13T12:39:59;25.20;60.70
13251;DHT22;6692;50.710;7.180;2023-07-13T12:44:13;25.30;61.80
13251;DHT22;6692;50.710;7.180;2023-07-13T12:46:19;25.30;62.50
13251;DHT22;6692;50.710;7.180;2023-07-13T12:48:19;25.20;63.00
13251;DHT22;6692;50.710;7.180;2023-07-13T12:50:21;25.10;62.90
13251;DHT22;6692;50.710;7.180;2023-07-13T12:52:22;24.90;62.00
13251;DHT22;6692;50.710;7.180;2023-07-13T12:54:21;24.80;63.10
13251;DHT22;6692;50.710;7.180;2023-07-13T12:56:22;24.80;63.90
13251;DHT22;6692;50.710;7.180;2023-07-13T12:58:27;24.90;64.80
13251;DHT22;6692;50.710;7.180;2023-07-13T13:00:32;25.40;65.00
13251;DHT22;6692;50.710;7.180;2023-07-13T13:02:33;25.30;65.00
13251;DHT22;6692;50.710;7.180;2023-07-13T13:04:33;25.50;65.20
13251;DHT22;6692;50.710;7.180;2023-07-13T13:06:35;25.60;64.80
13251;DHT22;6692;50.710;7.180;2023-07-13T13:08:36;25.60;64.80
13251;DHT22;6692;50.710;7.180;2023-07-13T13:10:36;25.50;63.60
13251;DHT22;6692;50.710;7.180;2023-07-13T13:12:37;25.40;64.30